sensor_id;sensor_type;location;lat;lon;timestamp;temperature;humidity
24091;DHT22;12272;52.426;17.100;2023-03-21T00:04:25;12.60;99.90
24091;DHT22;12272;52.426;17.100;2023-03-21T00:09:30;12.60;99.90
24091;DHT22;12272;52.426;17.100;2023-03-21T00:14:33;12.50;99.90
24091;DHT22;12272;52.426;17.100;2023-03-21T00:19:36;12.30;99.90
24091;DHT22;12272;52.426;17.100;2023-03-21T00:24:39;12.10;99.90
24091;DHT22;12272;52.426;17.100;2023-03-21T00:29:42;12.20;99.90
24091;DHT22;12272;52.426;17.100;2023-03-21T00:34:45;12.00;99.90
24091;DHT22;12272;52.426;17.100;2023-03-21T00:40:08;12.10;99.90
24091;DHT22;12272;52.426;17.100;2023-03-21T00:45:26;12.60;99.90
24091;DHT22;12272;52.426;17.100;2023-03-21T00:50:29;12.30;99.90
24091;DHT22;12272;52.426;17.100;2023-03-21T00:55:32;12.20;99.90
24091;DHT22;12272;52.426;17.100;2023-03-21T01:00:35;11.90;99.90
24091;DHT22;12272;52.426;17.100;2023-03-21T01:05:40;11.70;99.90
24091;DHT22;12272;52.426;17.100;2023-03-21T01:11:08;11.40;99.90
24091;DHT22;12272;52.426;17.100;2023-03-21T01:16:11;11.30;99.90
24091;DHT22;12272;52.426;17.100;2023-03-21T01:21:14;11.30;99.90
24091;DHT22;12272;52.426;17.100;2023-03-21T01:26:17;11.20;99.90
24091;DHT22;12272;52.426;17.100;2023-03-21T01:31:20;10.90;99.90
24091;DHT22;12272;52.426;17.100;2023-03-21T01:36:24;10.90;99.90
24091;DHT22;12272;52.426;17.100;2023-03-21T01:41:35;10.90;99.90
24091;DHT22;12272;52.426;17.100;2023-03-21T01:47:00;10.90;99.90
24091;DHT22;12272;52.426;17.100;2023-03-21T01:52:33;10.90;99.90
24091;DHT22;12272;52.426;17.100;2023-03-21T01:57:50;10.90;99.90
24091;DHT22;12272;52.426;17.100;2023-03-21T02:03:45;11.10;99.90
24091;DHT22;12272;52.426;17.100;2023-03-21T02:09:10;11.30;99.90
24091;DHT22;12272;52.426;17.100;2023-03-21T02:14:18;11.40;99.90
24091;DHT22;12272;52.426;17.100;2023-03-21T02:20:08;11.40;99.90
24091;DHT22;12272;52.426;17.100;2023-03-21T02:31:06;11.10;99.90
24091;DHT22;12272;52.426;17.100;2023-03-21T02:36:44;11.10;99.90
24091;DHT22;12272;52.426;17.100;2023-03-21T02:47:32;11.00;99.90
24091;DHT22;12272;52.426;17.100;2023-03-21T02:52:41;11.00;99.90
24091;DHT22;12272;52.426;17.100;2023-03-21T02:57:49;11.10;99.90
24091;DHT22;12272;52.426;17.100;2023-03-21T03:02:52;11.20;99.90
24091;DHT22;12272;52.426;17.100;2023-03-21T03:18:58;10.90;99.90
24091;DHT22;12272;52.426;17.100;2023-03-21T03:24:12;10.80;99.90
24091;DHT22;12272;52.426;17.100;2023-03-21T03:29:22;10.70;99.90
24091;DHT22;12272;52.426;17.100;2023-03-21T03:34:37;10.80;99.90
24091;DHT22;12272;52.426;17.100;2023-03-21T03:40:07;10.90;99.90
24091;DHT22;12272;52.426;17.100;2023-03-21T03:45:14;10.70;99.90
24091;DHT22;12272;52.426;17.100;2023-03-21T03:50:25;10.70;99.90
24091;DHT22;12272;52.426;17.100;2023-03-21T03:55:30;10.50;99.90
24091;DHT22;12272;52.426;17.100;2023-03-21T04:00:47;10.50;99.90
24091;DHT22;12272;52.426;17.100;2023-03-21T04:05:50;10.30;99.90
24091;DHT22;12272;52.426;17.100;2023-03-21T04:10:53;10.40;99.90
24091;DHT22;12272;52.426;17.100;2023-03-21T04:15:56;10.40;99.90
24091;DHT22;12272;52.426;17.100;2023-03-21T04:20:59;10.50;99.90
24091;DHT22;12272;52.426;17.100;2023-03-21T04:26:05;10.50;99.90
24091;DHT22;12272;52.426;17.100;2023-03-21T04:31:16;10.90;99.90
24091;DHT22;12272;52.426;17.100;2023-03-21T04:36:30;11.20;99.90
24091;DHT22;12272;52.426;17.100;2023-03-21T04:41:44;11.10;99.90
24091;DHT22;12272;52.426;17.100;2023-03-21T04:46:47;10.90;99.90
24091;DHT22;12272;52.426;17.100;2023-03-21T04:51:50;10.80;99.90
24091;DHT22;12272;52.426;17.100;2023-03-21T04:56:54;10.80;99.90
24091;DHT22;12272;52.426;17.100;2023-03-21T05:02:00;11.10;99.90
24091;DHT22;12272;52.426;17.100;2023-03-21T05:07:05;11.60;99.90
24091;DHT22;12272;52.426;17.100;2023-03-21T05:12:07;11.90;99.90
24091;DHT22;12272;52.426;17.100;2023-03-21T05:17:11;11.90;99.90
24091;DHT22;12272;52.426;17.100;2023-03-21T05:22:26;11.80;99.90
24091;DHT22;12272;52.426;17.100;2023-03-21T05:27:31;11.70;99.90
24091;DHT22;12272;52.426;17.100;2023-03-21T05:32:42;11.60;99.90
24091;DHT22;12272;52.426;17.100;2023-03-21T05:37:46;11.80;99.90
24091;DHT22;12272;52.426;17.100;2023-03-21T05:42:49;11.80;99.90
24091;DHT22;12272;52.426;17.100;2023-03-21T05:47:57;11.60;99.90
24091;DHT22;12272;52.426;17.100;2023-03-21T05:53:05;11.60;99.90
24091;DHT22;12272;52.426;17.100;2023-03-21T05:58:09;11.40;99.90
24091;DHT22;12272;52.426;17.100;2023-03-21T06:03:14;11.20;99.90
24091;DHT22;12272;52.426;17.100;2023-03-21T06:08:32;11.20;99.90
24091;DHT22;12272;52.426;17.100;2023-03-21T06:13:35;11.50;99.90
24091;DHT22;12272;52.426;17.100;2023-03-21T06:18:38;11.80;99.90
24091;DHT22;12272;52.426;17.100;2023-03-21T06:23:59;11.70;99.90
24091;DHT22;12272;52.426;17.100;2023-03-21T06:29:03;11.70;99.90
24091;DHT22;12272;52.426;17.100;2023-03-21T06:34:07;11.90;99.90
24091;DHT22;12272;52.426;17.100;2023-03-21T06:39:12;12.00;99.90
24091;DHT22;12272;52.426;17.100;2023-03-21T06:44:18;11.80;99.90
24091;DHT22;12272;52.426;17.100;2023-03-21T06:49:29;11.70;99.90
24091;DHT22;12272;52.426;17.100;2023-03-21T06:54:36;11.80;99.90
24091;DHT22;12272;52.426;17.100;2023-03-21T06:59:45;11.80;99.90
24091;DHT22;12272;52.426;17.100;2023-03-21T07:04:54;12.10;99.90
24091;DHT22;12272;52.426;17.100;2023-03-21T07:10:01;11.90;99.90
24091;DHT22;12272;52.426;17.100;2023-03-21T07:15:09;12.00;99.90
24091;DHT22;12272;52.426;17.100;2023-03-21T07:20:15;12.50;99.90
24091;DHT22;12272;52.426;17.100;2023-03-21T07:25:18;12.60;99.90
24091;DHT22;12272;52.426;17.100;2023-03-21T07:30:22;13.00;99.90
24091;DHT22;12272;52.426;17.100;2023-03-21T07:35:25;13.20;99.90
24091;DHT22;12272;52.426;17.100;2023-03-21T07:40:28;13.20;99.90
24091;DHT22;12272;52.426;17.100;2023-03-21T07:45:31;13.10;99.90
24091;DHT22;12272;52.426;17.100;2023-03-21T07:50:34;13.20;99.90
24091;DHT22;12272;52.426;17.100;2023-03-21T07:55:37;13.50;99.90
24091;DHT22;12272;52.426;17.100;2023-03-21T08:00:40;13.70;99.00
24091;DHT22;12272;52.426;17.100;2023-03-21T08:05:43;13.80;99.20
24091;DHT22;12272;52.426;17.100;2023-03-21T08:10:46;13.90;96.30
24091;DHT22;12272;52.426;17.100;2023-03-21T08:15:49;13.80;98.30
24091;DHT22;12272;52.426;17.100;2023-03-21T08:20:56;14.20;98.60
24091;DHT22;12272;52.426;17.100;2023-03-21T08:25:59;14.30;97.90
24091;DHT22;12272;52.426;17.100;2023-03-21T08:31:07;14.10;96.40
24091;DHT22;12272;52.426;17.100;2023-03-21T08:36:10;14.50;97.60
24091;DHT22;12272;52.426;17.100;2023-03-21T08:41:14;14.50;97.00
24091;DHT22;12272;52.426;17.100;2023-03-21T08:46:16;14.20;96.30
24091;DHT22;12272;52.426;17.100;2023-03-21T08:51:20;14.30;97.40
24091;DHT22;12272;52.426;17.100;2023-03-21T08:56:23;14.40;95.70
24091;DHT22;12272;52.426;17.100;2023-03-21T09:01:25;14.20;97.10
24091;DHT22;12272;52.426;17.100;2023-03-21T09:06:28;14.50;96.80
24091;DHT22;12272;52.426;17.100;2023-03-21T09:11:31;14.40;96.40
24091;DHT22;12272;52.426;17.100;2023-03-21T09:16:34;14.80;95.70
24091;DHT22;12272;52.426;17.100;2023-03-21T09:21:37;15.00;93.90
24091;DHT22;12272;52.426;17.100;2023-03-21T09:26:40;15.10;95.00
24091;DHT22;12272;52.426;17.100;2023-03-21T09:31:45;15.30;92.20
24091;DHT22;12272;52.426;17.100;2023-03-21T09:36:48;15.00;94.30
24091;DHT22;12272;52.426;17.100;2023-03-21T09:47:20;14.80;92.70
24091;DHT22;12272;52.426;17.100;2023-03-21T09:58:18;14.70;92.80
24091;DHT22;12272;52.426;17.100;2023-03-21T10:03:26;14.70;92.70
24091;DHT22;12272;52.426;17.100;2023-03-21T10:08:34;14.20;94.00
24091;DHT22;12272;52.426;17.100;2023-03-21T10:14:00;14.00;93.40
24091;DHT22;12272;52.426;17.100;2023-03-21T10:19:11;13.80;97.00
24091;DHT22;12272;52.426;17.100;2023-03-21T10:24:18;13.80;97.50
24091;DHT22;12272;52.426;17.100;2023-03-21T10:29:29;14.50;97.10
24091;DHT22;12272;52.426;17.100;2023-03-21T10:34:40;15.00;96.00
24091;DHT22;12272;52.426;17.100;2023-03-21T10:39:47;15.10;95.10
24091;DHT22;12272;52.426;17.100;2023-03-21T10:44:54;15.30;93.60
24091;DHT22;12272;52.426;17.100;2023-03-21T10:50:05;15.60;92.70
24091;DHT22;12272;52.426;17.100;2023-03-21T11:00:29;15.20;90.90
24091;DHT22;12272;52.426;17.100;2023-03-21T11:05:38;14.80;90.70
24091;DHT22;12272;52.426;17.100;2023-03-21T11:11:04;14.40;93.00
24091;DHT22;12272;52.426;17.100;2023-03-21T11:16:20;14.00;91.50
24091;DHT22;12272;52.426;17.100;2023-03-21T11:21:24;14.10;93.70
24091;DHT22;12272;52.426;17.100;2023-03-21T11:26:35;14.00;89.90
24091;DHT22;12272;52.426;17.100;2023-03-21T11:31:39;14.20;96.00
24091;DHT22;12272;52.426;17.100;2023-03-21T11:36:42;14.60;94.10
24091;DHT22;12272;52.426;17.100;2023-03-21T11:41:51;14.50;90.90
24091;DHT22;12272;52.426;17.100;2023-03-21T11:46:54;14.30;93.20
24091;DHT22;12272;52.426;17.100;2023-03-21T11:57:31;14.40;93.10
24091;DHT22;12272;52.426;17.100;2023-03-21T12:02:57;14.60;91.30
24091;DHT22;12272;52.426;17.100;2023-03-21T12:08:41;14.20;89.00
24091;DHT22;12272;52.426;17.100;2023-03-21T12:14:02;14.20;90.60
24091;DHT22;12272;52.426;17.100;2023-03-21T12:24:54;13.90;94.10
24091;DHT22;12272;52.426;17.100;2023-03-21T12:46:07;15.60;91.90
24091;DHT22;12272;52.426;17.100;2023-03-21T12:51:15;15.30;86.30
24091;DHT22;12272;52.426;17.100;2023-03-21T12:56:23;15.20;88.50
24091;DHT22;12272;52.426;17.100;2023-03-21T13:01:27;14.70;86.90
24091;DHT22;12272;52.426;17.100;2023-03-21T13:06:31;14.90;92.30
24091;DHT22;12272;52.426;17.100;2023-03-21T13:11:34;14.50;88.10
24091;DHT22;12272;52.426;17.100;2023-03-21T13:16:59;14.60;92.10
24091;DHT22;12272;52.426;17.100;2023-03-21T13:22:25;15.10;92.30
24091;DHT22;12272;52.426;17.100;2023-03-21T13:27:34;15.40;90.80
24091;DHT22;12272;52.426;17.100;2023-03-21T13:32:39;15.40;84.60
24091;DHT22;12272;52.426;17.100;2023-03-21T13:37:58;15.50;90.40
24091;DHT22;12272;52.426;17.100;2023-03-21T13:43:03;15.50;84.30
24091;DHT22;12272;52.426;17.100;2023-03-21T13:48:28;15.50;90.30
24091;DHT22;12272;52.426;17.100;2023-03-21T13:53:39;15.30;88.20
24091;DHT22;12272;52.426;17.100;2023-03-21T14:03:45;15.90;90.20
24091;DHT22;12272;52.426;17.100;2023-03-21T14:08:48;15.90;85.50
24091;DHT22;12272;52.426;17.100;2023-03-21T14:13:52;15.70;80.50
24091;DHT22;12272;52.426;17.100;2023-03-21T14:19:02;14.80;77.60
24091;DHT22;12272;52.426;17.100;2023-03-21T14:24:10;14.90;84.70
24091;DHT22;12272;52.426;17.100;2023-03-21T14:29:23;15.10;91.40
24091;DHT22;12272;52.426;17.100;2023-03-21T14:34:31;15.00;89.30
24091;DHT22;12272;52.426;17.100;2023-03-21T14:39:34;15.10;86.30
24091;DHT22;12272;52.426;17.100;2023-03-21T14:44:39;14.90;87.50
24091;DHT22;12272;52.426;17.100;2023-03-21T14:49:57;14.90;91.50
24091;DHT22;12272;52.426;17.100;2023-03-21T14:55:02;14.80;92.00
24091;DHT22;12272;52.426;17.100;2023-03-21T15:00:21;14.80;90.30
24091;DHT22;12272;52.426;17.100;2023-03-21T15:05:35;14.50;87.60
24091;DHT22;12272;52.426;17.100;2023-03-21T15:10:40;14.20;90.10
24091;DHT22;12272;52.426;17.100;2023-03-21T15:15:43;14.10;90.40
24091;DHT22;12272;52.426;17.100;2023-03-21T15:20:48;14.00;93.40
24091;DHT22;12272;52.426;17.100;2023-03-21T15:25:51;14.40;95.80
24091;DHT22;12272;52.426;17.100;2023-03-21T15:30:54;14.60;95.10
24091;DHT22;12272;52.426;17.100;2023-03-21T15:35:58;14.30;91.70
24091;DHT22;12272;52.426;17.100;2023-03-21T15:51:57;13.50;96.60
24091;DHT22;12272;52.426;17.100;2023-03-21T15:57:02;13.40;95.70
24091;DHT22;12272;52.426;17.100;2023-03-21T16:02:19;13.30;95.40
24091;DHT22;12272;52.426;17.100;2023-03-21T16:07:23;13.60;97.20
24091;DHT22;12272;52.426;17.100;2023-03-21T16:12:26;13.60;97.10
24091;DHT22;12272;52.426;17.100;2023-03-21T16:17:34;13.30;95.70
24091;DHT22;12272;52.426;17.100;2023-03-21T16:22:40;13.30;96.20
24091;DHT22;12272;52.426;17.100;2023-03-21T16:27:44;13.20;96.00
24091;DHT22;12272;52.426;17.100;2023-03-21T16:32:47;13.30;97.80
24091;DHT22;12272;52.426;17.100;2023-03-21T16:37:51;13.00;96.40
24091;DHT22;12272;52.426;17.100;2023-03-21T16:42:54;13.30;99.90
24091;DHT22;12272;52.426;17.100;2023-03-21T16:47:57;13.50;98.80
24091;DHT22;12272;52.426;17.100;2023-03-21T16:53:01;13.50;96.90
24091;DHT22;12272;52.426;17.100;2023-03-21T16:58:04;13.50;98.10
24091;DHT22;12272;52.426;17.100;2023-03-21T17:03:15;13.10;95.70
24091;DHT22;12272;52.426;17.100;2023-03-21T17:08:22;12.40;95.80
24091;DHT22;12272;52.426;17.100;2023-03-21T17:13:27;11.70;99.90
24091;DHT22;12272;52.426;17.100;2023-03-21T17:18:30;12.20;99.90
24091;DHT22;12272;52.426;17.100;2023-03-21T17:23:32;11.90;99.60
24091;DHT22;12272;52.426;17.100;2023-03-21T17:28:39;12.00;99.90
24091;DHT22;12272;52.426;17.100;2023-03-21T17:33:43;11.80;99.90
24091;DHT22;12272;52.426;17.100;2023-03-21T17:38:46;11.60;99.90
24091;DHT22;12272;52.426;17.100;2023-03-21T17:43:49;11.30;99.90
24091;DHT22;12272;52.426;17.100;2023-03-21T17:48:53;11.20;99.90
24091;DHT22;12272;52.426;17.100;2023-03-21T17:53:56;11.10;99.90
24091;DHT22;12272;52.426;17.100;2023-03-21T17:59:01;11.00;99.90
24091;DHT22;12272;52.426;17.100;2023-03-21T18:04:04;10.90;99.90
24091;DHT22;12272;52.426;17.100;2023-03-21T18:09:07;10.80;99.90
24091;DHT22;12272;52.426;17.100;2023-03-21T18:14:13;10.70;99.90
24091;DHT22;12272;52.426;17.100;2023-03-21T18:19:20;10.60;99.90
24091;DHT22;12272;52.426;17.100;2023-03-21T18:24:22;10.70;99.90
24091;DHT22;12272;52.426;17.100;2023-03-21T18:29:25;11.10;99.90
24091;DHT22;12272;52.426;17.100;2023-03-21T18:34:50;11.20;99.90
24091;DHT22;12272;52.426;17.100;2023-03-21T18:39:53;11.20;99.90
24091;DHT22;12272;52.426;17.100;2023-03-21T18:44:56;11.20;99.90
24091;DHT22;12272;52.426;17.100;2023-03-21T18:49:59;11.10;99.90
24091;DHT22;12272;52.426;17.100;2023-03-21T18:55:17;11.00;99.90
24091;DHT22;12272;52.426;17.100;2023-03-21T19:00:20;10.90;99.90
24091;DHT22;12272;52.426;17.100;2023-03-21T19:05:24;10.80;99.90
24091;DHT22;12272;52.426;17.100;2023-03-21T19:10:28;10.80;99.90
24091;DHT22;12272;52.426;17.100;2023-03-21T19:15:31;10.70;99.90
24091;DHT22;12272;52.426;17.100;2023-03-21T19:20:33;10.60;99.90
24091;DHT22;12272;52.426;17.100;2023-03-21T19:25:36;10.70;99.90
24091;DHT22;12272;52.426;17.100;2023-03-21T19:30:39;10.80;99.90
24091;DHT22;12272;52.426;17.100;2023-03-21T19:35:51;10.70;99.90
24091;DHT22;12272;52.426;17.100;2023-03-21T19:41:13;10.70;99.90
24091;DHT22;12272;52.426;17.100;2023-03-21T19:46:16;10.60;99.90
24091;DHT22;12272;52.426;17.100;2023-03-21T19:51:22;10.50;99.90
24091;DHT22;12272;52.426;17.100;2023-03-21T19:56:31;10.50;99.90
24091;DHT22;12272;52.426;17.100;2023-03-21T20:01:35;10.50;99.90
24091;DHT22;12272;52.426;17.100;2023-03-21T20:06:38;10.60;99.90
24091;DHT22;12272;52.426;17.100;2023-03-21T20:11:42;10.70;99.90
24091;DHT22;12272;52.426;17.100;2023-03-21T20:16:44;10.70;99.90
24091;DHT22;12272;52.426;17.100;2023-03-21T20:21:47;10.60;99.90
24091;DHT22;12272;52.426;17.100;2023-03-21T20:27:00;10.60;99.90
24091;DHT22;12272;52.426;17.100;2023-03-21T20:32:03;10.50;99.90
24091;DHT22;12272;52.426;17.100;2023-03-21T20:37:06;10.40;99.90
24091;DHT22;12272;52.426;17.100;2023-03-21T20:42:09;10.30;99.90
24091;DHT22;12272;52.426;17.100;2023-03-21T20:47:12;10.30;99.90
24091;DHT22;12272;52.426;17.100;2023-03-21T20:52:15;10.20;99.90
24091;DHT22;12272;52.426;17.100;2023-03-21T20:57:39;10.20;99.90
24091;DHT22;12272;52.426;17.100;2023-03-21T21:02:44;10.30;99.90
24091;DHT22;12272;52.426;17.100;2023-03-21T21:07:48;10.30;99.90
24091;DHT22;12272;52.426;17.100;2023-03-21T21:12:51;10.30;99.90
24091;DHT22;12272;52.426;17.100;2023-03-21T21:17:54;10.10;99.90
24091;DHT22;12272;52.426;17.100;2023-03-21T21:23:08;10.10;99.90
24091;DHT22;12272;52.426;17.100;2023-03-21T21:28:11;10.10;99.90
24091;DHT22;12272;52.426;17.100;2023-03-21T21:33:13;10.00;99.90
24091;DHT22;12272;52.426;17.100;2023-03-21T21:38:17;10.00;99.90
24091;DHT22;12272;52.426;17.100;2023-03-21T21:43:20;10.00;99.90
24091;DHT22;12272;52.426;17.100;2023-03-21T21:48:24;9.80;99.90
24091;DHT22;12272;52.426;17.100;2023-03-21T21:53:27;9.80;99.90
24091;DHT22;12272;52.426;17.100;2023-03-21T21:58:31;9.80;99.90
24091;DHT22;12272;52.426;17.100;2023-03-21T22:03:35;9.70;99.90
24091;DHT22;12272;52.426;17.100;2023-03-21T22:08:37;9.90;99.90
24091;DHT22;12272;52.426;17.100;2023-03-21T22:13:48;9.90;99.90
24091;DHT22;12272;52.426;17.100;2023-03-21T22:18:50;9.80;99.90
24091;DHT22;12272;52.426;17.100;2023-03-21T22:23:53;9.70;99.90
24091;DHT22;12272;52.426;17.100;2023-03-21T22:28:56;9.80;99.90
24091;DHT22;12272;52.426;17.100;2023-03-21T22:33:59;9.70;99.90
24091;DHT22;12272;52.426;17.100;2023-03-21T22:39:02;9.80;99.90
24091;DHT22;12272;52.426;17.100;2023-03-21T22:44:05;9.70;99.90
24091;DHT22;12272;52.426;17.100;2023-03-21T22:49:07;9.70;99.90
24091;DHT22;12272;52.426;17.100;2023-03-21T22:54:09;9.80;99.90
24091;DHT22;12272;52.426;17.100;2023-03-21T22:59:12;9.80;99.90
24091;DHT22;12272;52.426;17.100;2023-03-21T23:04:15;9.80;99.90
24091;DHT22;12272;52.426;17.100;2023-03-21T23:09:18;9.80;99.90
24091;DHT22;12272;52.426;17.100;2023-03-21T23:14:21;9.70;99.90
24091;DHT22;12272;52.426;17.100;2023-03-21T23:19:31;9.70;99.90
24091;DHT22;12272;52.426;17.100;2023-03-21T23:24:43;9.70;99.90
24091;DHT22;12272;52.426;17.100;2023-03-21T23:29:46;9.70;99.90
24091;DHT22;12272;52.426;17.100;2023-03-21T23:34:48;9.60;99.90
24091;DHT22;12272;52.426;17.100;2023-03-21T23:39:51;9.80;99.90
24091;DHT22;12272;52.426;17.100;2023-03-21T23:44:56;9.80;99.90
24091;DHT22;12272;52.426;17.100;2023-03-21T23:49:59;9.70;99.90
24091;DHT22;12272;52.426;17.100;2023-03-21T23:55:02;9.60;99.90
